Allwood, New Jersey
Current Conditions -  °F | °C
As of 4:02 PM on Monday 22 Dec 2014 (Local Time) from KTEB Reporting Station
Light Rain Light Rain  
Wind Chill:   Ceiling: 800
Heat Index:   Visibility: 4mi
Dew Point:   Wind: 6mph
Humidity: 81%   Direction: 60°ENE
Pressure: 30.22"   Gusts: NA
Location:  40.8469°N, 74.1593°W
Report Text: KTEB 222102Z 06005KT 4SM -RA BR OVC008 06/03 A3022 RMK AO2 P0000
Loading
Personal Weather Stations






























Interactive Weather Map New forecast layout! Learn more

10-Day Weather Forecast

Advertisements
Track Severe Weather on mobile